Time;durP1;ratioP1;P1;durP2;ratioP2;P2;SDS_P1;SDS_P2;PMS_P1;PMS_P2;Temp;Humidity;BMP_temperature;BMP_pressure;BME280_temperature;BME280_humidity;BME280_pressure;Samples;Min_cycle;Max_cycle;Signal;HPM_P1;HPM_P2
2023/03/01 00:01:11;;;;;;;;;;;26.60;98.60;;;;;;5044076;28;19913;-69
2023/03/01 00:03:37;;;;;;;;;;;26.70;99.30;;;;;;5042905;28;19921;-68
2023/03/01 00:06:04;;;;;;;;;;;26.90;99.40;;;;;;5043063;28;19920;-67
2023/03/01 00:08:32;;;;;;;;;;;27.00;98.50;;;;;;5044359;28;19908;-72
2023/03/01 00:11:02;;;;;;;;;;;27.10;98.00;;;;;;5044986;28;20456;-71
2023/03/01 00:13:28;;;;;;;;;;;27.10;97.90;;;;;;5043678;28;20381;-70
2023/03/01 00:15:55;;;;;;;;;;;27.20;97.50;;;;;;5043981;28;19935;-66
2023/03/01 00:18:22;;;;;;;;;;;27.20;97.50;;;;;;5043658;28;19961;-66
2023/03/01 00:20:55;;;;;;;;;;;27.30;97.60;;;;;;5044659;28;19974;-66
2023/03/01 00:23:23;;;;;;;;;;;27.40;97.60;;;;;;5043601;28;19924;-71
2023/03/01 00:25:49;;;;;;;;;;;27.50;97.30;;;;;;5044681;28;19919;-67
2023/03/01 00:28:16;;;;;;;;;;;27.60;97.30;;;;;;5044260;28;19952;-67
2023/03/01 00:30:43;;;;;;;;;;;27.60;96.70;;;;;;5041029;28;19966;-70
2023/03/01 00:33:10;;;;;;;;;;;27.70;97.00;;;;;;5042565;28;19963;-69
2023/03/01 00:35:36;;;;;;;;;;;27.70;96.80;;;;;;5044566;28;19936;-70
2023/03/01 00:38:04;;;;;;;;;;;27.80;96.80;;;;;;5044111;28;19971;-70
2023/03/01 00:40:33;;;;;;;;;;;28.00;96.90;;;;;;5042587;28;19919;-68
2023/03/01 00:43:03;;;;;;;;;;;28.10;96.10;;;;;;5043275;28;20220;-65
2023/03/01 00:45:33;;;;;;;;;;;28.20;96.00;;;;;;5044035;28;19915;-71
2023/03/01 00:48:00;;;;;;;;;;;28.30;96.20;;;;;;5042313;28;20386;-67
2023/03/01 00:50:26;;;;;;;;;;;28.50;96.70;;;;;;5043439;28;19916;-67
2023/03/01 00:52:56;;;;;;;;;;;28.50;97.40;;;;;;5041830;28;19909;-69
2023/03/01 00:55:23;;;;;;;;;;;28.40;97.50;;;;;;5042721;28;19908;-68
2023/03/01 00:57:50;;;;;;;;;;;28.30;97.80;;;;;;5042319;28;19909;-70
2023/03/01 01:00:17;;;;;;;;;;;28.30;98.10;;;;;;5043028;28;19913;-72
2023/03/01 01:02:43;;;;;;;;;;;28.30;97.90;;;;;;5042954;28;19943;-70
2023/03/01 01:05:10;;;;;;;;;;;28.40;97.50;;;;;;5042784;28;19916;-72
2023/03/01 01:07:37;;;;;;;;;;;28.50;97.40;;;;;;5043018;28;20385;-69
2023/03/01 01:10:04;;;;;;;;;;;28.60;97.20;;;;;;5042875;28;19921;-68
2023/03/01 01:12:31;;;;;;;;;;;28.70;97.10;;;;;;5042192;28;20380;-68
2023/03/01 01:14:57;;;;;;;;;;;28.80;97.10;;;;;;5043284;28;19909;-71
2023/03/01 01:17:24;;;;;;;;;;;28.90;96.90;;;;;;5043275;28;19908;-67
2023/03/01 01:19:51;;;;;;;;;;;29.00;96.90;;;;;;5043038;28;20350;-68
2023/03/01 01:22:17;;;;;;;;;;;29.00;96.80;;;;;;5042097;28;19916;-68
2023/03/01 01:24:44;;;;;;;;;;;29.00;96.80;;;;;;5043346;28;19916;-68
2023/03/01 01:27:10;;;;;;;;;;;29.10;97.10;;;;;;5043885;28;19996;-68
2023/03/01 01:29:37;;;;;;;;;;;29.20;96.50;;;;;;5042989;28;19920;-65
2023/03/01 01:32:04;;;;;;;;;;;29.20;96.70;;;;;;5042935;28;20320;-68
2023/03/01 01:34:30;;;;;;;;;;;29.30;96.30;;;;;;5043240;28;19916;-65
2023/03/01 01:36:58;;;;;;;;;;;29.20;96.10;;;;;;5042847;28;19917;-67
2023/03/01 01:39:24;;;;;;;;;;;29.20;96.30;;;;;;5042072;28;19920;-69
2023/03/01 01:41:51;;;;;;;;;;;29.30;95.60;;;;;;5042439;28;20353;-69
2023/03/01 01:44:19;;;;;;;;;;;29.50;95.70;;;;;;5040346;28;19913;-65
2023/03/01 01:47:04;;;;;;;;;;;29.50;95.40;;;;;;5043341;28;19912;-64
2023/03/01 01:49:37;;;;;;;;;;;29.70;94.90;;;;;;5042365;28;19909;-66
2023/03/01 01:52:15;;;;;;;;;;;29.90;94.30;;;;;;5041823;28;19913;-65
2023/03/01 01:54:47;;;;;;;;;;;30.00;93.80;;;;;;5042605;28;19935;-71
2023/03/01 01:57:16;;;;;;;;;;;30.10;93.60;;;;;;5042421;28;19913;-68
2023/03/01 01:59:44;;;;;;;;;;;30.20;93.30;;;;;;5043599;28;19909;-73
2023/03/01 02:02:12;;;;;;;;;;;30.30;93.70;;;;;;5042327;28;19923;-70
2023/03/01 02:04:39;;;;;;;;;;;30.30;93.00;;;;;;5042506;28;19935;-68
2023/03/01 02:07:23;;;;;;;;;;;30.30;92.70;;;;;;5042412;28;19964;-70
2023/03/01 02:09:52;;;;;;;;;;;30.30;92.50;;;;;;5040987;28;19940;-66
2023/03/01 02:12:20;;;;;;;;;;;30.50;92.10;;;;;;5047143;28;19955;-70
2023/03/01 02:14:47;;;;;;;;;;;30.50;92.20;;;;;;5047265;28;19909;-73
2023/03/01 02:17:16;;;;;;;;;;;30.70;92.00;;;;;;5045837;28;20066;-71
2023/03/01 02:19:45;;;;;;;;;;;30.60;91.80;;;;;;5045742;28;19912;-67
2023/03/01 02:22:15;;;;;;;;;;;30.60;91.50;;;;;;5046261;28;19912;-66
2023/03/01 02:24:48;;;;;;;;;;;30.60;90.80;;;;;;5046291;28;20011;-71
2023/03/01 02:27:16;;;;;;;;;;;30.60;90.60;;;;;;5045817;28;19913;-70
2023/03/01 02:29:43;;;;;;;;;;;30.50;90.50;;;;;;5040857;28;19916;-70
2023/03/01 02:32:11;;;;;;;;;;;30.80;90.50;;;;;;5045764;28;19912;-67
2023/03/01 02:34:39;;;;;;;;;;;30.90;90.60;;;;;;5046537;28;20258;-70
2023/03/01 02:37:08;;;;;;;;;;;31.10;90.50;;;;;;5045789;28;20046;-69
2023/03/01 02:39:41;;;;;;;;;;;31.40;90.20;;;;;;5046255;28;19919;-68
2023/03/01 02:42:11;;;;;;;;;;;31.20;87.30;;;;;;5045859;28;19970;-69
2023/03/01 02:44:38;;;;;;;;;;;31.00;86.90;;;;;;5044397;28;19912;-68
2023/03/01 02:47:05;;;;;;;;;;;30.90;87.20;;;;;;5041629;28;19912;-66
2023/03/01 02:49:34;;;;;;;;;;;31.00;88.60;;;;;;5044984;28;19909;-70
2023/03/01 02:52:00;;;;;;;;;;;31.00;90.00;;;;;;5046010;28;20669;-64
2023/03/01 02:54:34;;;;;;;;;;;31.20;89.40;;;;;;5045951;28;19909;-71
2023/03/01 02:57:01;;;;;;;;;;;31.70;90.60;;;;;;5045453;28;19909;-68
2023/03/01 02:59:31;;;;;;;;;;;32.20;87.20;;;;;;5045271;28;19920;-68
2023/03/01 03:01:57;;;;;;;;;;;32.50;86.80;;;;;;5045688;28;20436;-72
2023/03/01 03:04:24;;;;;;;;;;;33.10;85.60;;;;;;5045749;28;19921;-71
2023/03/01 03:06:51;;;;;;;;;;;33.80;84.50;;;;;;5045560;28;19916;-65
2023/03/01 03:09:18;;;;;;;;;;;34.50;83.50;;;;;;5044869;28;19920;-71
2023/03/01 03:11:45;;;;;;;;;;;34.90;81.70;;;;;;5045435;28;19909;-69
2023/03/01 03:14:13;;;;;;;;;;;35.30;80.00;;;;;;5045994;28;19909;-70
2023/03/01 03:16:41;;;;;;;;;;;36.10;80.00;;;;;;5045427;28;19921;-76
2023/03/01 03:19:07;;;;;;;;;;;36.70;78.00;;;;;;5042313;28;19912;-69
2023/03/01 03:21:34;;;;;;;;;;;37.20;77.30;;;;;;5044576;28;19916;-69
2023/03/01 03:24:01;;;;;;;;;;;36.90;76.90;;;;;;5045770;28;19916;-67
2023/03/01 03:26:28;;;;;;;;;;;36.60;77.60;;;;;;5045177;28;20470;-72
2023/03/01 03:28:55;;;;;;;;;;;36.50;77.50;;;;;;5045038;28;19920;-67
2023/03/01 03:31:22;;;;;;;;;;;37.00;76.40;;;;;;5044784;28;19912;-71
2023/03/01 03:33:48;;;;;;;;;;;36.90;77.00;;;;;;5044307;28;19921;-70
2023/03/01 03:36:19;;;;;;;;;;;37.00;77.70;;;;;;5044037;28;19913;-67
2023/03/01 03:38:46;;;;;;;;;;;36.90;78.90;;;;;;5045507;28;19921;-68
2023/03/01 03:41:13;;;;;;;;;;;37.80;77.60;;;;;;5044487;28;19912;-71
2023/03/01 03:43:42;;;;;;;;;;;38.50;76.40;;;;;;5044107;28;19928;-72
2023/03/01 03:46:09;;;;;;;;;;;38.80;75.00;;;;;;5044776;28;19917;-68
2023/03/01 03:48:40;;;;;;;;;;;38.60;74.10;;;;;;5044603;28;19916;-70
2023/03/01 03:51:06;;;;;;;;;;;38.20;74.00;;;;;;5044878;28;19913;-68
2023/03/01 03:53:33;;;;;;;;;;;38.00;73.00;;;;;;5044974;28;19936;-70
2023/03/01 03:56:00;;;;;;;;;;;38.00;73.20;;;;;;5044201;28;19909;-73
2023/03/01 03:58:27;;;;;;;;;;;38.90;72.80;;;;;;5044180;28;20289;-74
2023/03/01 04:00:55;;;;;;;;;;;39.70;69.30;;;;;;5044184;28;19913;-74
2023/03/01 04:03:23;;;;;;;;;;;39.30;67.80;;;;;;5044787;28;19917;-73
2023/03/01 04:05:53;;;;;;;;;;;37.70;69.30;;;;;;5042443;28;20020;-73
2023/03/01 04:08:21;;;;;;;;;;;36.80;70.30;;;;;;5044115;28;20373;-71
2023/03/01 04:10:49;;;;;;;;;;;36.00;71.30;;;;;;5044090;28;20003;-72
2023/03/01 04:13:18;;;;;;;;;;;35.60;70.50;;;;;;5043010;28;19921;-71
2023/03/01 04:15:46;;;;;;;;;;;35.70;69.70;;;;;;5043133;28;19912;-69
2023/03/01 04:18:13;;;;;;;;;;;36.60;68.50;;;;;;5044486;28;19913;-67
2023/03/01 04:20:40;;;;;;;;;;;36.80;68.40;;;;;;5044212;28;20362;-67
2023/03/01 04:23:15;;;;;;;;;;;38.20;67.90;;;;;;5042728;28;19925;-71
2023/03/01 04:25:42;;;;;;;;;;;39.30;67.00;;;;;;5041243;28;20282;-70
2023/03/01 04:28:09;;;;;;;;;;;39.80;65.80;;;;;;5041648;28;20349;-68
2023/03/01 04:30:37;;;;;;;;;;;40.00;65.50;;;;;;5040699;28;19920;-66
2023/03/01 04:33:11;;;;;;;;;;;40.30;65.10;;;;;;5037206;28;19912;-70
2023/03/01 04:35:38;;;;;;;;;;;39.90;64.60;;;;;;5042374;28;19924;-69
2023/03/01 04:38:05;;;;;;;;;;;39.50;65.20;;;;;;5034597;28;19959;-71
2023/03/01 04:40:32;;;;;;;;;;;39.10;66.00;;;;;;5040906;28;19931;-65
2023/03/01 04:42:59;;;;;;;;;;;39.20;65.10;;;;;;5041436;28;19920;-65
2023/03/01 04:45:25;;;;;;;;;;;39.00;65.70;;;;;;5043010;28;20012;-72
2023/03/01 04:47:52;;;;;;;;;;;39.20;65.60;;;;;;5042222;28;20379;-68
2023/03/01 04:50:23;;;;;;;;;;;39.10;65.00;;;;;;5043188;28;19917;-68
2023/03/01 04:52:50;;;;;;;;;;;38.60;65.30;;;;;;5041610;28;20043;-67
2023/03/01 04:55:16;;;;;;;;;;;38.50;67.00;;;;;;5043190;28;19917;-75
2023/03/01 04:57:43;;;;;;;;;;;38.80;65.60;;;;;;5040209;28;20007;-70
2023/03/01 05:00:20;;;;;;;;;;;38.40;65.70;;;;;;5043063;28;19913;-66
2023/03/01 05:03:05;;;;;;;;;;;38.80;65.60;;;;;;5034260;28;20032;-68
2023/03/01 05:05:35;;;;;;;;;;;39.00;65.70;;;;;;5036922;28;19924;-67
2023/03/01 05:08:04;;;;;;;;;;;39.30;65.60;;;;;;5040687;28;19912;-66
2023/03/01 05:10:32;;;;;;;;;;;39.10;65.80;;;;;;5042020;28;19913;-67
2023/03/01 05:12:59;;;;;;;;;;;39.10;66.20;;;;;;5041733;28;19915;-65
2023/03/01 05:15:27;;;;;;;;;;;39.80;66.10;;;;;;5042693;28;19917;-68
2023/03/01 05:17:55;;;;;;;;;;;40.30;64.80;;;;;;5041673;28;19912;-68
2023/03/01 05:20:24;;;;;;;;;;;40.20;64.60;;;;;;5039092;28;20323;-67
2023/03/01 05:22:52;;;;;;;;;;;39.50;64.50;;;;;;5041169;28;19928;-67
2023/03/01 05:25:19;;;;;;;;;;;38.90;65.70;;;;;;5041922;28;19913;-68
2023/03/01 05:27:48;;;;;;;;;;;38.70;66.30;;;;;;5041967;28;19920;-73
2023/03/01 05:30:18;;;;;;;;;;;39.00;65.90;;;;;;5042433;28;19919;-69
2023/03/01 05:32:46;;;;;;;;;;;39.20;66.70;;;;;;5041816;28;19917;-67
2023/03/01 05:35:13;;;;;;;;;;;39.30;65.90;;;;;;5042548;28;20255;-70
2023/03/01 05:37:44;;;;;;;;;;;39.30;66.20;;;;;;5041912;28;19920;-71
2023/03/01 05:40:15;;;;;;;;;;;39.10;66.00;;;;;;5042284;28;20401;-65
2023/03/01 05:42:43;;;;;;;;;;;38.50;66.90;;;;;;5041460;28;19924;-66
2023/03/01 05:45:12;;;;;;;;;;;38.00;67.60;;;;;;5046604;28;19923;-73
2023/03/01 05:47:44;;;;;;;;;;;38.20;67.60;;;;;;5048141;28;19923;-66
2023/03/01 05:50:19;;;;;;;;;;;38.20;68.50;;;;;;5048416;28;20346;-69
2023/03/01 05:52:46;;;;;;;;;;;39.00;67.40;;;;;;5048285;28;20004;-66
2023/03/01 05:55:17;;;;;;;;;;;39.40;66.00;;;;;;5049248;28;19912;-70
2023/03/01 05:57:44;;;;;;;;;;;39.00;67.00;;;;;;5049662;28;19908;-67
2023/03/01 06:00:11;;;;;;;;;;;39.40;67.20;;;;;;5047949;28;19909;-67
2023/03/01 06:02:38;;;;;;;;;;;39.40;66.40;;;;;;5049705;28;19917;-69
2023/03/01 06:05:05;;;;;;;;;;;38.90;67.70;;;;;;5048681;28;19924;-67
2023/03/01 06:07:37;;;;;;;;;;;38.40;68.00;;;;;;5048999;28;19966;-70
2023/03/01 06:10:05;;;;;;;;;;;38.30;68.60;;;;;;5048942;28;20157;-72
2023/03/01 06:12:32;;;;;;;;;;;37.80;69.20;;;;;;5049149;28;20011;-66
2023/03/01 06:14:59;;;;;;;;;;;37.20;70.60;;;;;;5043423;28;19927;-71
2023/03/01 06:17:26;;;;;;;;;;;37.00;70.30;;;;;;5047320;28;19909;-75
2023/03/01 06:19:53;;;;;;;;;;;36.90;71.10;;;;;;5045287;28;19932;-71
2023/03/01 06:22:19;;;;;;;;;;;36.50;72.10;;;;;;5045663;28;19932;-72
2023/03/01 06:24:46;;;;;;;;;;;36.40;72.10;;;;;;5049949;28;19913;-65
2023/03/01 06:27:12;;;;;;;;;;;36.40;72.20;;;;;;5048804;28;20377;-68
2023/03/01 06:29:39;;;;;;;;;;;36.50;72.30;;;;;;5036498;28;19909;-69
2023/03/01 06:32:06;;;;;;;;;;;36.80;71.50;;;;;;5034306;28;19920;-65
2023/03/01 06:34:32;;;;;;;;;;;36.50;72.70;;;;;;5037956;28;19921;-65
2023/03/01 06:36:59;;;;;;;;;;;36.20;72.90;;;;;;5049302;28;20283;-69
2023/03/01 06:39:27;;;;;;;;;;;35.80;74.10;;;;;;5049318;28;20020;-65
2023/03/01 06:41:54;;;;;;;;;;;35.80;74.40;;;;;;5039087;28;19921;-64
2023/03/01 06:44:21;;;;;;;;;;;35.50;74.60;;;;;;5047513;28;19963;-67
2023/03/01 06:46:47;;;;;;;;;;;35.40;75.40;;;;;;5047044;28;19916;-65
2023/03/01 06:49:15;;;;;;;;;;;35.00;75.30;;;;;;5046602;28;20000;-68
2023/03/01 06:51:42;;;;;;;;;;;34.70;75.80;;;;;;5048007;28;19919;-67
2023/03/01 06:54:09;;;;;;;;;;;34.20;77.30;;;;;;5046921;28;20395;-64
2023/03/01 06:56:36;;;;;;;;;;;33.20;78.50;;;;;;5045022;28;19920;-67
2023/03/01 06:59:03;;;;;;;;;;;32.70;80.00;;;;;;5043380;28;19920;-67
2023/03/01 07:01:30;;;;;;;;;;;32.40;81.10;;;;;;5043559;28;19967;-67
2023/03/01 07:03:57;;;;;;;;;;;32.70;80.00;;;;;;5044255;28;20317;-65
2023/03/01 07:06:24;;;;;;;;;;;32.80;79.40;;;;;;5044236;28;19912;-64
2023/03/01 07:08:50;;;;;;;;;;;32.80;80.00;;;;;;5044924;28;19913;-70
2023/03/01 07:11:17;;;;;;;;;;;33.00;79.50;;;;;;5044417;28;20073;-66
2023/03/01 07:13:44;;;;;;;;;;;33.00;78.80;;;;;;5041547;28;20075;-64
2023/03/01 07:16:10;;;;;;;;;;;32.80;79.60;;;;;;5044376;28;19916;-66
2023/03/01 07:18:37;;;;;;;;;;;32.80;79.50;;;;;;5045775;28;19921;-68
2023/03/01 07:21:08;;;;;;;;;;;32.40;80.80;;;;;;5045138;28;19928;-68
2023/03/01 07:23:35;;;;;;;;;;;32.30;80.90;;;;;;5045087;28;20362;-68
2023/03/01 07:26:01;;;;;;;;;;;32.30;81.10;;;;;;5044741;28;19989;-67
2023/03/01 07:28:28;;;;;;;;;;;31.70;82.40;;;;;;5044269;28;19913;-64
2023/03/01 07:30:55;;;;;;;;;;;31.30;83.70;;;;;;5043086;28;19916;-65
2023/03/01 07:33:22;;;;;;;;;;;31.20;84.20;;;;;;5044549;28;19988;-64
2023/03/01 07:35:48;;;;;;;;;;;31.10;84.20;;;;;;5045306;28;20393;-66
2023/03/01 07:38:15;;;;;;;;;;;30.70;85.20;;;;;;5044762;28;19921;-65
2023/03/01 07:40:42;;;;;;;;;;;30.50;85.80;;;;;;5045357;28;19912;-66
2023/03/01 07:43:08;;;;;;;;;;;30.10;86.80;;;;;;5044305;28;19924;-67
2023/03/01 07:45:35;;;;;;;;;;;29.50;88.00;;;;;;5044516;28;19947;-64
2023/03/01 07:48:03;;;;;;;;;;;28.70;90.20;;;;;;5044936;28;19917;-67
2023/03/01 07:50:30;;;;;;;;;;;28.00;91.30;;;;;;5044538;28;20007;-66
2023/03/01 07:52:56;;;;;;;;;;;27.50;92.30;;;;;;5045211;28;19912;-67
2023/03/01 07:55:23;;;;;;;;;;;27.30;93.10;;;;;;5041582;28;19920;-71
2023/03/01 07:57:50;;;;;;;;;;;27.10;93.60;;;;;;5042899;28;19947;-66
2023/03/01 08:00:16;;;;;;;;;;;26.80;93.70;;;;;;5043890;28;19986;-67
2023/03/01 08:02:43;;;;;;;;;;;26.60;94.30;;;;;;5040668;28;19971;-67
2023/03/01 08:05:10;;;;;;;;;;;26.50;94.80;;;;;;5035877;28;19963;-71
2023/03/01 08:07:37;;;;;;;;;;;26.30;95.20;;;;;;5039604;28;19971;-66
2023/03/01 08:10:04;;;;;;;;;;;26.20;95.60;;;;;;5032524;28;20318;-64
2023/03/01 08:12:30;;;;;;;;;;;26.10;96.00;;;;;;5036207;28;20358;-68
2023/03/01 08:14:57;;;;;;;;;;;26.00;96.20;;;;;;5040782;28;19921;-66
2023/03/01 08:17:24;;;;;;;;;;;25.80;96.50;;;;;;5027894;28;20416;-65
2023/03/01 08:19:50;;;;;;;;;;;25.80;97.00;;;;;;5059096;28;19913;-65
2023/03/01 08:22:17;;;;;;;;;;;25.50;97.30;;;;;;5036260;28;19970;-68
2023/03/01 08:24:43;;;;;;;;;;;25.40;97.50;;;;;;5040093;28;20678;-64
2023/03/01 08:27:11;;;;;;;;;;;25.40;97.80;;;;;;5029270;28;20342;-69
2023/03/01 08:29:38;;;;;;;;;;;25.40;98.00;;;;;;5028692;28;19955;-65
2023/03/01 08:32:05;;;;;;;;;;;25.30;98.20;;;;;;5036363;28;20298;-66
2023/03/01 08:34:31;;;;;;;;;;;25.30;98.40;;;;;;5031747;28;19931;-68
2023/03/01 08:36:58;;;;;;;;;;;25.30;98.50;;;;;;5029406;28;19920;-66
2023/03/01 08:39:25;;;;;;;;;;;25.20;98.70;;;;;;5023979;28;20007;-67
2023/03/01 08:41:52;;;;;;;;;;;25.10;98.90;;;;;;5030984;28;20015;-71
2023/03/01 08:44:19;;;;;;;;;;;25.10;98.90;;;;;;5032512;28;19920;-66
2023/03/01 08:46:46;;;;;;;;;;;25.10;99.10;;;;;;5031552;28;19913;-70
2023/03/01 08:49:16;;;;;;;;;;;25.10;99.10;;;;;;5023951;28;19916;-69
2023/03/01 08:51:43;;;;;;;;;;;25.10;99.30;;;;;;5028780;28;19916;-71
2023/03/01 08:54:12;;;;;;;;;;;25.00;99.60;;;;;;5032762;28;19952;-64
2023/03/01 08:56:38;;;;;;;;;;;25.00;99.70;;;;;;5030191;28;19925;-65
2023/03/01 08:59:05;;;;;;;;;;;24.90;99.90;;;;;;5025589;28;19909;-66
2023/03/01 09:01:32;;;;;;;;;;;24.90;99.90;;;;;;5039169;28;19913;-64
2023/03/01 09:03:58;;;;;;;;;;;24.90;99.90;;;;;;5034951;28;19921;-65
2023/03/01 09:06:25;;;;;;;;;;;24.90;99.90;;;;;;5034305;28;20358;-65
2023/03/01 09:08:51;;;;;;;;;;;24.90;99.90;;;;;;5041643;28;19913;-66
2023/03/01 09:11:20;;;;;;;;;;;24.90;99.90;;;;;;5036669;28;20385;-67
2023/03/01 09:13:47;;;;;;;;;;;24.90;99.90;;;;;;5039095;28;19924;-66
2023/03/01 09:16:16;;;;;;;;;;;24.90;99.90;;;;;;5033127;28;19909;-66
2023/03/01 09:18:43;;;;;;;;;;;24.90;99.90;;;;;;5032067;28;19936;-73
2023/03/01 09:21:11;;;;;;;;;;;24.90;99.90;;;;;;5033791;28;20483;-66
2023/03/01 09:23:39;;;;;;;;;;;24.80;99.90;;;;;;5033303;28;20309;-65
2023/03/01 09:26:08;;;;;;;;;;;24.80;99.90;;;;;;5031374;28;19916;-68
2023/03/01 09:28:35;;;;;;;;;;;24.90;99.90;;;;;;5034005;28;20332;-70
2023/03/01 09:31:02;;;;;;;;;;;24.80;99.90;;;;;;5035333;28;19990;-66
2023/03/01 09:33:30;;;;;;;;;;;24.90;99.90;;;;;;5038903;28;19913;-67
2023/03/01 09:36:00;;;;;;;;;;;24.90;99.90;;;;;;5030378;28;19975;-67
2023/03/01 09:38:27;;;;;;;;;;;24.90;99.90;;;;;;5027717;28;20683;-65
2023/03/01 09:40:54;;;;;;;;;;;24.90;99.90;;;;;;5037036;28;19959;-62
2023/03/01 09:43:20;;;;;;;;;;;24.80;99.90;;;;;;5042421;28;20492;-66
2023/03/01 09:45:49;;;;;;;;;;;24.80;99.90;;;;;;5042428;28;20011;-65
2023/03/01 09:48:23;;;;;;;;;;;24.80;99.90;;;;;;5037512;28;19952;-67
2023/03/01 09:50:50;;;;;;;;;;;24.80;99.90;;;;;;5036059;28;19916;-73
2023/03/01 09:53:18;;;;;;;;;;;24.80;99.90;;;;;;5032015;28;19940;-65
2023/03/01 09:56:05;;;;;;;;;;;24.70;99.90;;;;;;5033165;28;19938;-67
2023/03/01 09:58:39;;;;;;;;;;;24.70;99.90;;;;;;5036556;28;20011;-66
2023/03/01 10:01:24;;;;;;;;;;;24.70;99.90;;;;;;5039411;28;19955;-67
2023/03/01 10:04:00;;;;;;;;;;;24.70;99.90;;;;;;5030096;28;19927;-67
2023/03/01 10:06:26;;;;;;;;;;;24.80;99.90;;;;;;5026362;28;19952;-66
2023/03/01 10:09:02;;;;;;;;;;;24.70;99.90;;;;;;5037883;28;19912;-63
2023/03/01 10:11:33;;;;;;;;;;;24.70;99.90;;;;;;5042628;28;19921;-65
2023/03/01 10:14:18;;;;;;;;;;;24.80;99.90;;;;;;5041412;28;20381;-64
2023/03/01 10:16:50;;;;;;;;;;;24.70;99.90;;;;;;5026757;28;19920;-70
2023/03/01 10:19:43;;;;;;;;;;;24.80;99.90;;;;;;5036881;28;19917;-73
2023/03/01 10:22:16;;;;;;;;;;;24.70;99.90;;;;;;5042170;28;20342;-65
2023/03/01 10:24:43;;;;;;;;;;;24.70;99.90;;;;;;5042627;28;20293;-66
2023/03/01 10:27:18;;;;;;;;;;;24.70;99.90;;;;;;5043721;28;20262;-64
2023/03/01 10:29:48;;;;;;;;;;;24.70;99.90;;;;;;5042373;28;20443;-65
2023/03/01 10:32:15;;;;;;;;;;;24.60;99.90;;;;;;5046481;28;19908;-63
2023/03/01 10:34:41;;;;;;;;;;;24.50;99.90;;;;;;5046045;28;19915;-67
2023/03/01 10:37:11;;;;;;;;;;;24.60;99.90;;;;;;5046853;28;19913;-66
2023/03/01 10:39:54;;;;;;;;;;;24.60;99.90;;;;;;5046123;28;19959;-66
2023/03/01 10:42:25;;;;;;;;;;;24.50;99.90;;;;;;5046951;28;19921;-67
2023/03/01 10:44:52;;;;;;;;;;;24.50;99.90;;;;;;5046000;28;20444;-67
2023/03/01 10:47:20;;;;;;;;;;;24.50;99.90;;;;;;5046957;28;19964;-64
2023/03/01 10:49:52;;;;;;;;;;;24.50;99.90;;;;;;5045841;28;19909;-66
2023/03/01 10:52:20;;;;;;;;;;;24.50;99.90;;;;;;5046741;28;19956;-70
2023/03/01 10:54:58;;;;;;;;;;;24.50;99.90;;;;;;5045507;28;19923;-67
2023/03/01 10:57:42;;;;;;;;;;;24.50;99.90;;;;;;5047574;28;19908;-75
2023/03/01 11:00:20;;;;;;;;;;;24.60;99.90;;;;;;5046625;28;19909;-64
2023/03/01 11:02:51;;;;;;;;;;;24.50;99.90;;;;;;5046130;28;20342;-64
2023/03/01 11:05:23;;;;;;;;;;;24.30;99.90;;;;;;5046864;28;19939;-70
2023/03/01 11:07:57;;;;;;;;;;;24.20;99.90;;;;;;5045587;28;19919;-65
2023/03/01 11:10:27;;;;;;;;;;;24.10;99.90;;;;;;5047028;28;19908;-70
2023/03/01 11:12:54;;;;;;;;;;;24.10;99.90;;;;;;5044222;28;19920;-68
2023/03/01 11:15:28;;;;;;;;;;;24.00;99.90;;;;;;5038625;28;19909;-70
2023/03/01 11:17:56;;;;;;;;;;;23.90;99.90;;;;;;5045352;28;19909;-65
2023/03/01 11:20:29;;;;;;;;;;;23.90;99.90;;;;;;5029071;28;19920;-67
2023/03/01 11:22:58;;;;;;;;;;;23.80;99.90;;;;;;5039618;28;19979;-64
2023/03/01 11:25:32;;;;;;;;;;;23.80;99.90;;;;;;5046395;28;19951;-64
2023/03/01 11:28:00;;;;;;;;;;;23.80;99.90;;;;;;5045406;28;19908;-64
2023/03/01 11:30:44;;;;;;;;;;;23.80;99.90;;;;;;5046285;28;19913;-68
2023/03/01 11:33:37;;;;;;;;;;;23.80;99.90;;;;;;5045005;28;19999;-64
2023/03/01 11:36:07;;;;;;;;;;;23.80;99.90;;;;;;5034765;28;19913;-65
2023/03/01 11:38:35;;;;;;;;;;;23.90;99.90;;;;;;5025874;28;19928;-66
2023/03/01 11:41:07;;;;;;;;;;;23.90;99.90;;;;;;5025517;28;19909;-64
2023/03/01 11:43:33;;;;;;;;;;;23.90;99.90;;;;;;5026139;28;19964;-67
2023/03/01 11:46:13;;;;;;;;;;;23.80;99.90;;;;;;5025145;28;20378;-68
2023/03/01 11:48:46;;;;;;;;;;;23.80;99.90;;;;;;5025883;28;19910;-64
2023/03/01 11:51:31;;;;;;;;;;;23.80;99.90;;;;;;5025105;28;20007;-68
2023/03/01 11:54:02;;;;;;;;;;;23.80;99.90;;;;;;5024972;28;20269;-64
2023/03/01 11:56:33;;;;;;;;;;;23.80;99.90;;;;;;5026165;28;19909;-71
2023/03/01 11:59:20;;;;;;;;;;;23.80;99.90;;;;;;5024534;28;20583;-64
2023/03/01 12:02:05;;;;;;;;;;;23.80;99.90;;;;;;5036816;28;19966;-66
2023/03/01 12:04:48;;;;;;;;;;;23.80;99.90;;;;;;5044721;28;20385;-65
2023/03/01 12:07:14;;;;;;;;;;;23.80;99.90;;;;;;5045185;28;19967;-65
2023/03/01 12:10:06;;;;;;;;;;;23.80;99.90;;;;;;5045800;28;19909;-64
2023/03/01 12:12:51;;;;;;;;;;;23.80;99.90;;;;;;5037112;28;19915;-66
2023/03/01 12:15:23;;;;;;;;;;;23.80;99.90;;;;;;5044860;28;19909;-63
2023/03/01 12:18:01;;;;;;;;;;;23.90;99.90;;;;;;5045338;28;19909;-71
2023/03/01 12:20:27;;;;;;;;;;;23.80;99.90;;;;;;5045512;28;19913;-64
2023/03/01 12:22:54;;;;;;;;;;;23.90;99.90;;;;;;5044888;28;19920;-65
2023/03/01 12:25:30;;;;;;;;;;;23.90;99.90;;;;;;5045381;28;20717;-67
2023/03/01 12:27:59;;;;;;;;;;;23.90;99.90;;;;;;5045373;28;19962;-65
2023/03/01 12:30:40;;;;;;;;;;;23.80;99.90;;;;;;5044372;28;19913;-65
2023/03/01 12:33:15;;;;;;;;;;;23.90;99.90;;;;;;5044160;28;19909;-70
2023/03/01 12:35:54;;;;;;;;;;;23.90;99.90;;;;;;5044998;28;20281;-65
2023/03/01 12:38:22;;;;;;;;;;;23.90;99.90;;;;;;5043905;28;19920;-64
2023/03/01 12:41:06;;;;;;;;;;;23.90;99.90;;;;;;5044858;28;19916;-64
2023/03/01 12:43:42;;;;;;;;;;;23.90;99.90;;;;;;5044833;28;19916;-63
2023/03/01 12:46:11;;;;;;;;;;;23.90;99.90;;;;;;5044146;28;19909;-70
2023/03/01 12:48:43;;;;;;;;;;;23.90;99.90;;;;;;5044047;28;19913;-66
2023/03/01 12:51:12;;;;;;;;;;;23.80;99.90;;;;;;5043808;28;19952;-63
2023/03/01 12:53:46;;;;;;;;;;;23.80;99.90;;;;;;5043725;28;20443;-69
2023/03/01 12:56:16;;;;;;;;;;;23.80;99.90;;;;;;5044382;28;19913;-69
2023/03/01 12:58:51;;;;;;;;;;;23.80;99.90;;;;;;5044405;28;19959;-70
2023/03/01 13:01:17;;;;;;;;;;;23.70;99.90;;;;;;5043918;28;19917;-64
2023/03/01 13:03:56;;;;;;;;;;;23.70;99.90;;;;;;5044481;28;19978;-66
2023/03/01 13:06:26;;;;;;;;;;;23.70;99.90;;;;;;5043562;28;19944;-66
2023/03/01 13:08:52;;;;;;;;;;;23.70;99.90;;;;;;5044572;28;20564;-65
2023/03/01 13:11:20;;;;;;;;;;;23.60;99.90;;;;;;5043756;28;19913;-65
2023/03/01 13:13:48;;;;;;;;;;;23.60;99.90;;;;;;5044488;28;19912;-66
2023/03/01 13:16:22;;;;;;;;;;;23.60;99.90;;;;;;5043477;28;19908;-64
2023/03/01 13:18:48;;;;;;;;;;;23.60;99.90;;;;;;5043696;28;20381;-69
2023/03/01 13:21:29;;;;;;;;;;;23.70;99.90;;;;;;5043336;28;20330;-64
2023/03/01 13:23:55;;;;;;;;;;;23.70;99.90;;;;;;5044087;28;20332;-64
2023/03/01 13:26:22;;;;;;;;;;;23.80;99.90;;;;;;5042909;28;19917;-65
2023/03/01 13:28:52;;;;;;;;;;;23.70;99.90;;;;;;5043915;28;19932;-65
2023/03/01 13:31:19;;;;;;;;;;;23.80;99.90;;;;;;5043326;28;20376;-66
2023/03/01 13:33:49;;;;;;;;;;;23.80;99.90;;;;;;5043793;28;20000;-65
2023/03/01 13:36:28;;;;;;;;;;;23.70;99.90;;;;;;5043037;28;19909;-71
2023/03/01 13:38:59;;;;;;;;;;;23.80;99.90;;;;;;5043637;28;20015;-65
2023/03/01 13:41:44;;;;;;;;;;;23.90;99.90;;;;;;5042972;28;20297;-70
2023/03/01 13:44:29;;;;;;;;;;;23.80;99.90;;;;;;5043187;28;20008;-67
2023/03/01 13:46:58;;;;;;;;;;;23.80;99.90;;;;;;5043943;28;19909;-72
2023/03/01 13:49:44;;;;;;;;;;;23.80;99.90;;;;;;5043517;28;19909;-65
2023/03/01 13:52:34;;;;;;;;;;;23.80;99.90;;;;;;5043833;28;20004;-65
2023/03/01 13:55:03;;;;;;;;;;;23.80;99.90;;;;;;5045538;28;20332;-70
2023/03/01 13:57:34;;;;;;;;;;;23.80;99.90;;;;;;5043135;28;19967;-66
2023/03/01 14:00:01;;;;;;;;;;;23.80;99.90;;;;;;5043491;28;19996;-67
2023/03/01 14:02:28;;;;;;;;;;;23.80;99.90;;;;;;5043606;28;20353;-67
2023/03/01 14:04:59;;;;;;;;;;;23.80;99.90;;;;;;5044722;28;19959;-69
2023/03/01 14:07:29;;;;;;;;;;;23.80;99.90;;;;;;5047917;28;20365;-69
2023/03/01 14:10:00;;;;;;;;;;;23.70;99.90;;;;;;5047974;28;19917;-69
2023/03/01 14:12:33;;;;;;;;;;;23.70;99.90;;;;;;5047285;28;19930;-69
2023/03/01 14:14:59;;;;;;;;;;;23.70;99.90;;;;;;5047639;28;19931;-68
2023/03/01 14:17:34;;;;;;;;;;;23.60;99.90;;;;;;5047043;28;19980;-70
2023/03/01 14:20:04;;;;;;;;;;;23.60;99.90;;;;;;5047574;28;19909;-67
2023/03/01 14:22:34;;;;;;;;;;;23.60;99.90;;;;;;5046746;28;19917;-65
2023/03/01 14:25:00;;;;;;;;;;;23.50;99.90;;;;;;5046953;28;19913;-70
2023/03/01 14:27:30;;;;;;;;;;;23.50;99.90;;;;;;5046381;28;19908;-65
2023/03/01 14:29:58;;;;;;;;;;;23.40;99.90;;;;;;5047199;28;20369;-64